Grandeur Of The Seas — C6SE3 — position and weather

sailwx.info

Track history (hours):
 
Tides and Currents Weather Stations Pressure Air Temp Water Temp Dewpoint Dewpoint Depression Visibility Wind Speed Wind Dir Waves Ship Positions

Grandeur Of The Seas

Operator: Royal Caribbean Cruises Ltd

Last reported at 2014-Aug-22 09:33 UTC. Time now 2014-Aug-22 09:49 UTC.
Position N 39°11' W 076°28'.

Type: Passenger vessel. MMSI: 311315000.

Date/timePositionNaut miles runAvg speedWind from/ knotsBaromVisibWave heightAir tempDewpointWater temp
2014-Aug-22 09:33N 39°11' W 076°28'1313.1
2014-Aug-22 08:32N 38°58' W 076°23'1515.1
2014-Aug-22 07:33N 38°44' W 076°26'7915.1
2014-Aug-22 02:20N 37°27' W 076°05'1316.2
2014-Aug-22 01:33N 37°14' W 076°08'1615.2
2014-Aug-22 00:31N 36°60' W 076°01'1313.3
2014-Aug-21 23:31N 36°51' W 075°48'1212.3
2014-Aug-21 22:33N 36°45' W 075°36'7512.5
2014-Aug-21 16:33N 36°13' W 074°12'1313.0
2014-Aug-21 15:31N 36°07' W 073°56'9 9.8
2014-Aug-21 14:34N 36°04' W 073°46'1111.1
2014-Aug-21 13:34N 35°59' W 073°33'1211.5
2014-Aug-21 12:31N 35°54' W 073°20'1111.7
2014-Aug-21 11:33N 35°49' W 073°07'1211.9
2014-Aug-21 10:33N 35°44' W 072°54'1312.5
2014-Aug-21 09:33N 35°39' W 072°40'1312.7
2014-Aug-21 08:34N 35°33' W 072°26'1212.3
2014-Aug-21 07:33N 35°28' W 072°12'1312.8
2014-Aug-21 06:33N 35°23' W 071°58'1512.8
2014-Aug-21 05:24N 35°16' W 071°42'1313.4
2014-Aug-21 04:27N 35°11' W 071°27'1313.6
2014-Aug-21 03:31N 35°06' W 071°13'3514.0
2014-Aug-21 01:00N 34°48' W 070°36'3712.2 290 / 171014.0 2.2 27.025.629.0
2014-Aug-20 22:00N 34°36' W 069°54'17611.7 220 / 261014.0 5.4 1.027.021.329.0
2014-Aug-20 07:00N 35°12' W 066°24'   35.0 30.0
2014-Aug-17 07:00N 33°30' W 067°12'10417.3 200 / 41017.427.0 2.025.023.629.0
2014-Aug-17 01:00N 34°12' W 069°06'35118.5
2014-Aug-16 06:00N 36°42' W 075°36'1423.8 150 / 121020.227.0 2.024.021.126.0
2014-Aug-16 05:23N 36°51' W 075°50'1315.5
2014-Aug-16 04:33N 37°00' W 076°02'1515.4
2014-Aug-16 03:33N 37°15' W 076°08'9418.3
2014-Aug-15 22:24N 38°48' W 076°25'1618.9
2014-Aug-15 21:33N 39°04' W 076°23'1312.8
2014-Aug-15 20:33N 39°14' W 076°33'3 2.8
2014-Aug-15 19:30N 39°16' W 076°36'0 0.0
2014-Aug-15 18:33N 39°16' W 076°36'0 0.0
2014-Aug-15 17:27N 39°16' W 076°36'0 0.0
2014-Aug-15 16:24N 39°16' W 076°36'0 0.0
2014-Aug-15 15:12N 39°16' W 076°36'0 0.0
2014-Aug-15 13:27N 39°16' W 076°36'0 0.0
2014-Aug-15 12:30N 39°16' W 076°36'0 0.0
2014-Aug-15 11:30N 39°16' W 076°36'0 0.3
2014-Aug-15 10:33N 39°16' W 076°36'9 8.7
2014-Aug-15 09:33N 39°11' W 076°26'1313.3
2014-Aug-15 08:33N 38°58' W 076°24'1515.1
2014-Aug-15 07:33N 38°43' W 076°26'9315.4
2014-Aug-15 01:32N 37°11' W 076°09'1716.9
2014-Aug-15 00:33N 36°57' W 075°58'1313.4
2014-Aug-14 23:33N 36°49' W 075°45'18213.4
2014-Aug-14 10:00N 33°48' W 076°12'35414.8 010 / 111009.227.0 2.526.021.729.0
2014-Aug-13 10:00N 28°24' W 079°00'3015.2 240 / 211011.627.0 2.028.025.332.0
2014-Aug-13 08:00N 27°54' W 079°06'3015.2 250 / 61011.727.0 2.028.026.732.0
2014-Aug-13 06:00N 27°24' W 079°12'6412.7 200 / 161012.927.0 2.028.026.732.0
2014-Aug-13 01:00N 26°24' W 078°48'   170 / 131013.010.8 28.026.731.0
Track history (hours):
 
Tides and Currents Weather Stations Pressure Air Temp Water Temp Dewpoint Dewpoint Depression Visibility Wind Speed Wind Dir Waves Ship Positions

Grandeur Of The Seas

Operator: Royal Caribbean Cruises Ltd

Last reported at 2014-Aug-22 09:33 UTC. Time now 2014-Aug-22 09:49 UTC.
Position N 39°11' W 076°28'.

Type: Passenger vessel. MMSI: 311315000.

Date/timePositionNaut miles runAvg speedWind from/ knotsBaromVisibWave heightAir tempDewpointWater temp
2014-Aug-22 09:33N 39°11' W 076°28'1313.1
2014-Aug-22 08:32N 38°58' W 076°23'1515.1
2014-Aug-22 07:33N 38°44' W 076°26'7915.1
2014-Aug-22 02:20N 37°27' W 076°05'1316.2
2014-Aug-22 01:33N 37°14' W 076°08'1615.2
2014-Aug-22 00:31N 36°60' W 076°01'1313.3
2014-Aug-21 23:31N 36°51' W 075°48'1212.3
2014-Aug-21 22:33N 36°45' W 075°36'7512.5
2014-Aug-21 16:33N 36°13' W 074°12'1313.0
2014-Aug-21 15:31N 36°07' W 073°56'9 9.8
2014-Aug-21 14:34N 36°04' W 073°46'1111.1
2014-Aug-21 13:34N 35°59' W 073°33'1211.5
2014-Aug-21 12:31N 35°54' W 073°20'1111.7
2014-Aug-21 11:33N 35°49' W 073°07'1211.9
2014-Aug-21 10:33N 35°44' W 072°54'1312.5
2014-Aug-21 09:33N 35°39' W 072°40'1312.7
2014-Aug-21 08:34N 35°33' W 072°26'1212.3
2014-Aug-21 07:33N 35°28' W 072°12'1312.8
2014-Aug-21 06:33N 35°23' W 071°58'1512.8
2014-Aug-21 05:24N 35°16' W 071°42'1313.4
2014-Aug-21 04:27N 35°11' W 071°27'1313.6
2014-Aug-21 03:31N 35°06' W 071°13'3514.0
2014-Aug-21 01:00N 34°48' W 070°36'3712.2 290 / 171014.0 2.2 27.025.629.0
2014-Aug-20 22:00N 34°36' W 069°54'17611.7 220 / 261014.0 5.4 1.027.021.329.0
2014-Aug-20 07:00N 35°12' W 066°24'   35.0 30.0
2014-Aug-17 07:00N 33°30' W 067°12'10417.3 200 / 41017.427.0 2.025.023.629.0
2014-Aug-17 01:00N 34°12' W 069°06'35118.5
2014-Aug-16 06:00N 36°42' W 075°36'1423.8 150 / 121020.227.0 2.024.021.126.0
2014-Aug-16 05:23N 36°51' W 075°50'1315.5
2014-Aug-16 04:33N 37°00' W 076°02'1515.4
2014-Aug-16 03:33N 37°15' W 076°08'9418.3
2014-Aug-15 22:24N 38°48' W 076°25'1618.9
2014-Aug-15 21:33N 39°04' W 076°23'1312.8
2014-Aug-15 20:33N 39°14' W 076°33'3 2.8
2014-Aug-15 19:30N 39°16' W 076°36'0 0.0
2014-Aug-15 18:33N 39°16' W 076°36'0 0.0
2014-Aug-15 17:27N 39°16' W 076°36'0 0.0
2014-Aug-15 16:24N 39°16' W 076°36'0 0.0
2014-Aug-15 15:12N 39°16' W 076°36'0 0.0
2014-Aug-15 13:27N 39°16' W 076°36'0 0.0
2014-Aug-15 12:30N 39°16' W 076°36'0 0.0
2014-Aug-15 11:30N 39°16' W 076°36'0 0.3
2014-Aug-15 10:33N 39°16' W 076°36'9 8.7
2014-Aug-15 09:33N 39°11' W 076°26'1313.3
2014-Aug-15 08:33N 38°58' W 076°24'1515.1
2014-Aug-15 07:33N 38°43' W 076°26'9315.4
2014-Aug-15 01:32N 37°11' W 076°09'1716.9
2014-Aug-15 00:33N 36°57' W 075°58'1313.4
2014-Aug-14 23:33N 36°49' W 075°45'18213.4
2014-Aug-14 10:00N 33°48' W 076°12'35414.8 010 / 111009.227.0 2.526.021.729.0
2014-Aug-13 10:00N 28°24' W 079°00'3015.2 240 / 211011.627.0 2.028.025.332.0
2014-Aug-13 08:00N 27°54' W 079°06'3015.2 250 / 61011.727.0 2.028.026.732.0
2014-Aug-13 06:00N 27°24' W 079°12'6412.7 200 / 161012.927.0 2.028.026.732.0
2014-Aug-13 01:00N 26°24' W 078°48'   170 / 131013.010.8 28.026.731.0

Dump ship's entire track history